Port Byron, New York
Current Conditions -  °F | °C
As of 10:54 AM on Friday 19 Dec 2014 (Local Time) from KFZY Reporting Station
Overcast Overcast  
Wind Chill: 15°   Ceiling: 1500
Heat Index: 25°   Visibility: 7mi
Dew Point: 19°   Wind: 10mph
Humidity: 78%   Direction: 320°NW
Pressure: 30.14"   Gusts: NA
Location:  43.03°N, 76.62°W
Report Text: KFZY 191554Z AUTO 32009KT 7SM OVC015 M04/M07 A3014 RMK AO2 SLP214 T10391072
Loading
Personal Weather Stations






























Interactive Weather Map New forecast layout! Learn more

10-Day Weather Forecast

Advertisements
Track Severe Weather on mobile